Alfred, Maine
Current Conditions -  °F | °C
As of 8:15 AM on Thursday 27 Nov 2014 (Local Time) from KSFM Reporting Station
Clear Clear  
Wind Chill: -4°   Ceiling: Unl
Heat Index: -1°   Visibility: 10mi
Dew Point: -3°   Wind: 5mph
Humidity: 86%   Direction: 300°WNW
Pressure: 29.87"   Gusts: NA
Location:  43.48°N, 70.72°W
Report Text: KSFM 271315Z AUTO 30004KT 10SM CLR M01/M03 A2987 RMK AO1 P0001
Loading
Personal Weather Stations






























Interactive Weather Map New forecast layout! Learn more

10-Day Weather Forecast

Advertisements
Track Severe Weather on mobile